Terminal Aerodrome Forecast
Issued by NWS

Home | Current Version | Previous Version | Text Only | Print | Product List | Glossary On
Versions: 1 2 3 4 5 6 7 8 9 10 11 12 13 14 15 16 17 18 19 20 21 22
000
FTUS42 KMHX 191957 AAA
TAFOAJ
TAF AMD
KOAJ 191957Z 1920/2018 13007KT P6SM VCSH SCT015 OVC060
      TEMPO 1920/1923 4SM SHRA BR BKN015
     FM200400 19007KT 4SM -SHRA BR OVC007
     FM201300 23006KT P6SM VCSH BKN015
     FM201500 24009KT P6SM SCT025
      AMD LTD TO CLD VIS AND WIND=

USA.gov is the U.S. government's official web portal to all federal, state and local government web resources and services.